createdAt,value
2023-03-06T00:00:35.782Z,30.20
2023-03-06T00:03:04.383Z,29.83
2023-03-06T00:05:33.029Z,30.33
2023-03-06T00:08:04.523Z,29.50
2023-03-06T00:10:33.710Z,30.43
2023-03-06T00:13:03.728Z,29.87
2023-03-06T00:15:33.608Z,29.20
2023-03-06T00:18:04.022Z,29.47
2023-03-06T00:20:32.919Z,30.10
2023-03-06T00:23:01.100Z,29.63
2023-03-06T00:25:29.568Z,29.40
2023-03-06T00:27:57.877Z,29.33
2023-03-06T00:30:26.662Z,29.30
2023-03-06T00:32:56.288Z,29.70
2023-03-06T00:35:24.586Z,29.63
2023-03-06T00:37:52.780Z,29.60
2023-03-06T00:40:21.824Z,30.23
2023-03-06T00:42:50.086Z,30.00
2023-03-06T00:45:20.241Z,30.63
2023-03-06T00:47:48.595Z,30.83
2023-03-06T00:50:19.991Z,31.53
2023-03-06T00:52:48.206Z,32.40
2023-03-06T00:55:17.448Z,32.03
2023-03-06T00:57:45.630Z,31.97
2023-03-06T01:00:15.439Z,33.70
2023-03-06T01:02:43.623Z,34.20
2023-03-06T01:05:14.039Z,34.20
2023-03-06T01:07:43.705Z,34.60
2023-03-06T01:10:13.092Z,33.70
2023-03-06T01:12:41.072Z,33.50
2023-03-06T01:15:10.392Z,33.47
2023-03-06T01:17:38.588Z,34.70
2023-03-06T01:20:07.855Z,34.13
2023-03-06T01:22:36.099Z,33.87
2023-03-06T01:25:09.698Z,34.30
2023-03-06T01:27:37.856Z,33.77
2023-03-06T01:30:06.749Z,33.90
2023-03-06T01:32:35.292Z,32.77
2023-03-06T01:35:03.889Z,33.10
2023-03-06T01:37:31.871Z,31.67
2023-03-06T01:40:00.217Z,31.50
2023-03-06T01:42:32.093Z,30.77
2023-03-06T01:45:02.262Z,31.00
2023-03-06T01:47:30.804Z,30.23
2023-03-06T01:50:00.288Z,30.47
2023-03-06T01:52:31.402Z,30.03
2023-03-06T01:55:03.432Z,30.53
2023-03-06T01:57:36.504Z,30.67
2023-03-06T02:00:09.649Z,30.27
2023-03-06T02:02:38.268Z,30.77
2023-03-06T02:05:09.065Z,30.67
2023-03-06T02:07:38.580Z,30.50
2023-03-06T02:10:07.724Z,30.47
2023-03-06T02:12:37.984Z,30.37
2023-03-06T02:15:07.101Z,30.63
2023-03-06T02:17:36.751Z,30.20
2023-03-06T02:20:12.323Z,30.33
2023-03-06T02:22:47.623Z,29.87
2023-03-06T02:25:32.126Z,30.00
2023-03-06T02:28:03.100Z,29.90
2023-03-06T02:30:31.617Z,30.43
2023-03-06T02:33:00.227Z,30.40
2023-03-06T02:35:30.413Z,30.43
2023-03-06T02:38:00.297Z,30.03
2023-03-06T02:40:30.202Z,29.90
2023-03-06T02:43:00.741Z,31.30
2023-03-06T02:45:34.956Z,31.20
2023-03-06T02:48:03.131Z,31.03
2023-03-06T02:50:31.759Z,30.93
2023-03-06T02:53:00.125Z,30.80
2023-03-06T02:55:29.771Z,31.00
2023-03-06T02:57:57.935Z,30.00
2023-03-06T03:00:26.154Z,30.07
2023-03-06T03:02:54.543Z,30.17
2023-03-06T03:05:22.962Z,31.37
2023-03-06T03:07:51.021Z,30.97
2023-03-06T03:10:21.871Z,31.37
2023-03-06T03:12:51.708Z,31.30
2023-03-06T03:15:19.961Z,31.27
2023-03-06T03:17:48.003Z,31.67
2023-03-06T03:20:18.159Z,32.00
2023-03-06T03:22:49.927Z,32.23
2023-03-06T03:25:20.716Z,31.63
2023-03-06T03:27:50.293Z,31.13
2023-03-06T03:30:19.206Z,32.20
2023-03-06T03:32:47.275Z,31.83
2023-03-06T03:35:15.511Z,31.47
2023-03-06T03:37:43.624Z,31.90
2023-03-06T03:40:12.790Z,32.03
2023-03-06T03:42:41.130Z,31.03
2023-03-06T03:45:11.826Z,31.30
2023-03-06T03:47:40.582Z,31.27
2023-03-06T03:50:10.381Z,31.27
2023-03-06T03:52:38.902Z,31.57
2023-03-06T03:55:08.970Z,31.73
2023-03-06T03:57:39.292Z,31.90
2023-03-06T04:00:09.871Z,31.90
2023-03-06T04:02:39.742Z,31.00
2023-03-06T04:05:08.152Z,31.07
2023-03-06T04:07:36.476Z,30.90
2023-03-06T04:10:04.981Z,31.30
2023-03-06T04:12:33.232Z,32.07
2023-03-06T04:15:01.252Z,31.60
2023-03-06T04:17:29.779Z,31.53
2023-03-06T04:19:59.381Z,32.00
2023-03-06T04:22:28.110Z,31.50
2023-03-06T04:24:59.627Z,32.10
2023-03-06T04:27:27.776Z,32.33
2023-03-06T04:29:56.698Z,32.17
2023-03-06T04:32:25.044Z,31.90
2023-03-06T04:34:53.723Z,32.90
2023-03-06T04:37:24.936Z,31.80
2023-03-06T04:39:53.870Z,32.17
2023-03-06T04:42:21.975Z,31.30
2023-03-06T04:44:50.014Z,31.83
2023-03-06T04:47:19.200Z,32.43
2023-03-06T04:49:47.836Z,32.00
2023-03-06T04:52:18.808Z,31.93
2023-03-06T04:54:48.442Z,31.40
2023-03-06T04:57:16.718Z,32.70
2023-03-06T04:59:44.855Z,31.63
2023-03-06T05:02:12.992Z,31.30
2023-03-06T05:04:43.074Z,31.17
2023-03-06T05:07:11.290Z,31.53
2023-03-06T05:09:40.313Z,31.70
2023-03-06T05:12:10.300Z,30.73
2023-03-06T05:14:38.490Z,33.13
2023-03-06T05:17:06.804Z,31.97
2023-03-06T05:19:35.184Z,32.73
2023-03-06T05:22:03.305Z,31.60
2023-03-06T05:24:31.509Z,31.07
2023-03-06T05:26:59.642Z,31.97
2023-03-06T05:29:29.318Z,31.70
2023-03-06T05:31:57.590Z,31.37
2023-03-06T05:34:25.958Z,30.93
2023-03-06T05:36:54.638Z,30.73
2023-03-06T05:39:22.858Z,31.60
2023-03-06T05:41:53.920Z,31.90
2023-03-06T05:44:23.981Z,31.13
2023-03-06T05:46:54.145Z,31.90
2023-03-06T05:49:22.326Z,31.07
2023-03-06T05:51:50.567Z,30.83
2023-03-06T05:54:18.780Z,31.90
2023-03-06T05:56:46.914Z,31.33
2023-03-06T05:59:15.747Z,31.60
2023-03-06T06:01:44.219Z,31.60
2023-03-06T06:04:13.848Z,30.43
2023-03-06T06:06:42.055Z,29.57
2023-03-06T06:09:12.829Z,28.73
2023-03-06T06:11:41.947Z,28.43
2023-03-06T06:14:10.030Z,27.70
2023-03-06T06:16:38.217Z,27.73
2023-03-06T06:19:06.404Z,27.67
2023-03-06T06:21:35.987Z,28.20
2023-03-06T06:24:04.170Z,27.47
2023-03-06T06:26:32.576Z,27.07
2023-03-06T06:29:02.363Z,27.23
2023-03-06T06:31:30.498Z,27.50
2023-03-06T06:33:58.667Z,27.83
2023-03-06T06:36:26.891Z,27.93
2023-03-06T06:38:56.399Z,27.83
2023-03-06T06:41:42.623Z,27.53
2023-03-06T06:44:16.001Z,27.30
2023-03-06T06:49:34.864Z,27.53
2023-03-06T06:52:03.123Z,27.23
2023-03-06T06:54:33.873Z,27.50
2023-03-06T06:57:01.963Z,28.50
2023-03-06T06:59:31.701Z,29.97
2023-03-06T07:02:00.149Z,28.83
2023-03-06T07:04:28.605Z,30.00
2023-03-06T07:06:57.036Z,29.47
2023-03-06T07:09:25.320Z,29.63
2023-03-06T07:11:54.902Z,28.30
2023-03-06T07:14:23.057Z,27.90
2023-03-06T07:16:51.184Z,28.67
2023-03-06T07:19:21.990Z,28.67
2023-03-06T07:21:49.956Z,28.40
2023-03-06T07:24:18.178Z,28.67
2023-03-06T07:26:48.171Z,28.43
2023-03-06T07:29:17.750Z,28.73
2023-03-06T07:31:46.251Z,27.90
2023-03-06T07:34:15.778Z,28.83
2023-03-06T07:36:43.907Z,29.33
2023-03-06T07:39:11.953Z,28.63
2023-03-06T07:41:40.125Z,28.10
2023-03-06T07:44:08.506Z,28.70
2023-03-06T07:46:38.193Z,28.77
2023-03-06T07:49:06.861Z,28.50
2023-03-06T07:51:34.886Z,28.80
2023-03-06T07:54:02.894Z,28.80
2023-03-06T07:56:31.089Z,29.00
2023-03-06T07:58:59.095Z,28.80
2023-03-06T08:01:27.395Z,29.73
2023-03-06T08:03:59.596Z,28.67
2023-03-06T08:06:28.760Z,28.23
2023-03-06T08:08:57.107Z,28.27
2023-03-06T08:11:27.021Z,27.73
2023-03-06T08:13:55.552Z,27.17
2023-03-06T08:16:26.192Z,27.73
2023-03-06T08:18:56.659Z,28.33
2023-03-06T08:21:26.745Z,27.67
2023-03-06T08:23:54.954Z,28.20
2023-03-06T08:26:25.730Z,27.60
2023-03-06T08:28:54.991Z,27.70
2023-03-06T08:31:27.965Z,28.37
2023-03-06T08:33:59.255Z,28.77
2023-03-06T08:36:27.723Z,28.90
2023-03-06T08:38:56.247Z,28.43
2023-03-06T08:41:24.549Z,28.63
2023-03-06T08:43:53.157Z,28.70
2023-03-06T08:46:25.694Z,28.70
2023-03-06T08:48:54.268Z,28.00
2023-03-06T08:51:24.425Z,27.60
2023-03-06T08:53:53.626Z,26.97
2023-03-06T08:56:23.707Z,27.13
2023-03-06T08:58:52.166Z,26.80
2023-03-06T09:01:22.401Z,27.43
2023-03-06T09:03:50.637Z,27.77
2023-03-06T09:06:21.510Z,27.47
2023-03-06T09:08:52.229Z,28.13
2023-03-06T09:11:22.538Z,28.90
2023-03-06T09:13:50.900Z,29.70
2023-03-06T09:16:22.012Z,30.47
2023-03-06T09:18:52.816Z,31.83
2023-03-06T09:21:25.374Z,31.43
2023-03-06T09:23:55.672Z,32.10
2023-03-06T09:26:32.847Z,31.67
2023-03-06T09:29:08.248Z,32.13
2023-03-06T09:31:36.811Z,32.63
2023-03-06T09:34:04.870Z,32.30
2023-03-06T09:36:45.670Z,33.03
2023-03-06T09:39:23.434Z,32.17
2023-03-06T09:41:52.006Z,32.70
2023-03-06T09:44:26.083Z,33.23
2023-03-06T09:47:23.151Z,32.53
2023-03-06T09:50:04.965Z,33.13
2023-03-06T09:52:37.564Z,32.80
2023-03-06T09:55:17.058Z,32.03
2023-03-06T09:57:54.545Z,31.10
2023-03-06T10:00:29.606Z,30.37
2023-03-06T10:03:08.614Z,30.77
2023-03-06T10:05:44.274Z,30.33
2023-03-06T10:08:22.844Z,30.27
2023-03-06T10:11:05.267Z,30.20
2023-03-06T10:13:39.593Z,31.03
2023-03-06T10:16:19.912Z,30.50
2023-03-06T10:18:48.060Z,31.43
2023-03-06T10:21:41.074Z,31.63
2023-03-06T10:24:23.447Z,32.57
2023-03-06T10:26:57.795Z,32.13
2023-03-06T10:29:39.282Z,32.27
2023-03-06T10:32:21.823Z,32.83
2023-03-06T10:34:51.063Z,32.43
2023-03-06T10:37:23.641Z,32.80
2023-03-06T10:39:56.504Z,32.57
2023-03-06T10:42:28.845Z,33.17
2023-03-06T10:45:12.463Z,31.70
2023-03-06T10:47:41.236Z,32.53
2023-03-06T10:50:24.420Z,33.10
2023-03-06T10:53:02.068Z,32.40
2023-03-06T10:55:32.737Z,33.03
2023-03-06T10:58:18.851Z,30.83
2023-03-06T11:00:47.402Z,31.83
2023-03-06T11:03:21.529Z,30.87
2023-03-06T11:06:10.471Z,31.57
2023-03-06T11:08:42.258Z,30.70
2023-03-06T11:11:13.913Z,29.80
2023-03-06T11:13:44.854Z,28.70
2023-03-06T11:16:31.515Z,28.93
2023-03-06T11:19:01.742Z,26.87
2023-03-06T11:21:32.078Z,27.90
2023-03-06T11:24:05.324Z,27.90
2023-03-06T11:26:39.470Z,19.20
2023-03-06T11:29:22.938Z,10.60
2023-03-06T11:31:57.482Z,6.00
2023-03-06T11:34:39.252Z,4.38
2023-03-06T11:37:12.590Z,4.17
2023-03-06T11:39:45.816Z,2.90
2023-03-06T11:42:19.846Z,3.30
2023-03-06T11:44:57.612Z,3.05
2023-03-06T11:47:31.301Z,3.73
2023-03-06T11:50:14.771Z,2.97
2023-03-06T11:52:49.874Z,3.28
2023-03-06T11:55:22.378Z,2.90
2023-03-06T11:58:02.222Z,2.90
2023-03-06T12:00:48.074Z,3.05
2023-03-06T12:03:45.354Z,2.83
2023-03-06T12:06:25.691Z,3.20
2023-03-06T12:09:01.923Z,2.80
2023-03-06T12:11:39.156Z,4.10
2023-03-06T12:14:35.405Z,3.42
2023-03-06T12:17:17.264Z,3.25
2023-03-06T12:20:00.334Z,3.42
2023-03-06T12:22:42.174Z,3.53
2023-03-06T12:25:26.949Z,3.03
2023-03-06T12:28:12.307Z,2.83
2023-03-06T12:31:18.870Z,2.83
2023-03-06T12:34:02.904Z,2.67
2023-03-06T12:36:50.285Z,3.47
2023-03-06T12:39:28.527Z,3.63
2023-03-06T12:42:17.882Z,3.28
2023-03-06T12:45:12.133Z,3.72
2023-03-06T12:47:45.508Z,3.38
2023-03-06T12:50:20.335Z,3.40
2023-03-06T12:52:49.580Z,3.30
2023-03-06T12:55:24.336Z,2.67
2023-03-06T12:57:56.502Z,3.30
2023-03-06T13:01:04.213Z,2.70
2023-03-06T13:03:45.019Z,2.55
2023-03-06T13:06:49.728Z,2.97
2023-03-06T13:09:30.258Z,3.20
2023-03-06T13:12:21.292Z,4.05
2023-03-06T13:14:58.407Z,3.72
2023-03-06T13:17:40.364Z,3.65
2023-03-06T13:20:35.239Z,3.03
2023-03-06T13:23:52.237Z,3.60
2023-03-06T13:26:58.245Z,3.13
2023-03-06T13:30:04.030Z,4.15
2023-03-06T13:32:34.706Z,3.00
2023-03-06T13:35:03.320Z,3.30
2023-03-06T13:37:39.719Z,3.58
2023-03-06T13:40:32.855Z,3.67
2023-03-06T13:43:25.700Z,4.13
2023-03-06T13:45:54.012Z,4.72
2023-03-06T13:48:47.635Z,5.20
2023-03-06T13:51:23.547Z,4.60
2023-03-06T13:54:30.321Z,3.95
2023-03-06T13:57:27.639Z,5.72
2023-03-06T14:00:22.782Z,4.90
2023-03-06T14:03:30.561Z,4.68
2023-03-06T14:05:59.113Z,4.93
2023-03-06T14:08:30.310Z,4.43
2023-03-06T14:11:04.888Z,5.10
2023-03-06T14:13:47.101Z,6.45
2023-03-06T14:16:23.888Z,5.57
2023-03-06T14:18:56.932Z,5.57
2023-03-06T14:21:31.159Z,6.97
2023-03-06T14:24:00.842Z,4.55
2023-03-06T14:26:32.972Z,5.57
2023-03-06T14:29:04.072Z,4.90
2023-03-06T14:31:34.428Z,4.50
2023-03-06T14:34:05.239Z,4.60
2023-03-06T14:36:37.327Z,3.07
2023-03-06T14:39:12.182Z,3.90
2023-03-06T14:41:42.433Z,2.50
2023-03-06T14:44:18.096Z,2.07
2023-03-06T14:46:46.876Z,3.42
2023-03-06T14:49:18.027Z,3.20
2023-03-06T14:51:48.827Z,2.70
2023-03-06T14:54:20.172Z,2.93
2023-03-06T14:56:53.163Z,2.90
2023-03-06T14:59:26.929Z,3.23
2023-03-06T15:02:01.903Z,2.70
2023-03-06T15:04:36.671Z,3.00
2023-03-06T15:07:08.733Z,2.27
2023-03-06T15:09:38.892Z,2.60
2023-03-06T15:12:08.986Z,2.30
2023-03-06T15:14:40.753Z,1.87
2023-03-06T15:17:26.916Z,1.97
2023-03-06T15:19:56.868Z,1.80
2023-03-06T15:22:31.819Z,2.40
2023-03-06T15:25:26.706Z,2.10
2023-03-06T15:27:57.059Z,3.03
2023-03-06T15:30:30.760Z,3.60
2023-03-06T15:33:21.174Z,3.50
2023-03-06T15:35:55.236Z,3.80
2023-03-06T15:38:26.964Z,5.10
2023-03-06T15:40:57.155Z,4.20
2023-03-06T15:43:30.008Z,4.87
2023-03-06T15:46:02.268Z,3.97
2023-03-06T15:48:30.633Z,4.03
2023-03-06T15:51:03.678Z,3.87
2023-03-06T15:53:32.339Z,4.23
2023-03-06T15:56:01.260Z,4.53
2023-03-06T15:58:32.687Z,4.00
2023-03-06T16:01:04.029Z,4.57
2023-03-06T16:03:32.571Z,4.23
2023-03-06T16:06:01.626Z,4.60
2023-03-06T16:08:30.135Z,4.63
2023-03-06T16:10:59.036Z,4.37
2023-03-06T16:13:29.916Z,4.60
2023-03-06T16:15:58.430Z,5.37
2023-03-06T16:18:31.151Z,5.57
2023-03-06T16:20:59.349Z,5.93
2023-03-06T16:23:27.851Z,6.93
2023-03-06T16:25:59.056Z,6.67
2023-03-06T16:28:28.086Z,9.10
2023-03-06T16:30:56.708Z,12.27
2023-03-06T16:33:25.910Z,14.33
2023-03-06T16:35:56.330Z,15.87
2023-03-06T16:38:24.623Z,20.20
2023-03-06T16:40:53.180Z,24.63
2023-03-06T16:43:26.424Z,28.43
2023-03-06T16:45:55.009Z,29.37
2023-03-06T16:48:23.349Z,31.87
2023-03-06T16:50:52.100Z,32.90
2023-03-06T16:53:22.799Z,34.43
2023-03-06T16:55:52.056Z,35.93
2023-03-06T16:58:20.184Z,36.17
2023-03-06T17:00:48.277Z,36.50
2023-03-06T17:03:17.887Z,36.57
2023-03-06T17:05:46.934Z,36.60
2023-03-06T17:08:15.211Z,35.67
2023-03-06T17:10:45.615Z,35.63
2023-03-06T17:13:14.023Z,36.70
2023-03-06T17:15:42.480Z,38.10
2023-03-06T17:18:10.830Z,36.30
2023-03-06T17:20:39.530Z,35.80
2023-03-06T17:23:07.991Z,36.10
2023-03-06T17:25:38.518Z,35.90
2023-03-06T17:28:08.253Z,36.17
2023-03-06T17:30:36.682Z,35.90
2023-03-06T17:33:04.873Z,36.17
2023-03-06T17:35:38.061Z,35.53
2023-03-06T17:38:06.184Z,35.93
2023-03-06T17:40:35.481Z,36.97
2023-03-06T17:43:04.201Z,36.40
2023-03-06T17:45:36.592Z,35.90
2023-03-06T17:48:05.134Z,36.37
2023-03-06T17:50:33.647Z,36.50
2023-03-06T17:53:01.914Z,36.77
2023-03-06T17:55:30.196Z,36.10
2023-03-06T17:57:58.384Z,35.67
2023-03-06T18:00:30.432Z,36.97
2023-03-06T18:03:00.848Z,36.27
2023-03-06T18:05:29.052Z,36.90
2023-03-06T18:07:57.485Z,35.80
2023-03-06T18:10:25.799Z,36.10
2023-03-06T18:12:57.000Z,36.03
2023-03-06T18:15:25.292Z,35.77
2023-03-06T18:17:54.774Z,36.97
2023-03-06T18:20:30.622Z,37.10
2023-03-06T18:23:11.369Z,36.70
2023-03-06T18:25:39.334Z,36.20
2023-03-06T18:28:07.657Z,35.93
2023-03-06T18:30:36.705Z,36.10
2023-03-06T18:33:05.856Z,35.53
2023-03-06T18:35:51.032Z,35.93
2023-03-06T18:39:44.849Z,35.43
2023-03-06T18:42:44.608Z,34.87
2023-03-06T18:47:06.699Z,35.73
2023-03-06T18:49:39.913Z,36.37
2023-03-06T18:52:43.119Z,35.83
2023-03-06T18:58:35.945Z,36.33
2023-03-06T19:01:07.995Z,35.70
2023-03-06T19:03:36.708Z,34.97
2023-03-06T19:06:10.248Z,34.73
2023-03-06T19:08:41.319Z,35.03
2023-03-06T19:11:12.059Z,35.93
2023-03-06T19:13:41.101Z,33.90
2023-03-06T19:16:09.906Z,33.33
2023-03-06T19:18:39.140Z,33.83
2023-03-06T19:21:11.646Z,31.90
2023-03-06T19:23:42.437Z,31.33
2023-03-06T19:26:11.017Z,30.33
2023-03-06T19:28:41.196Z,31.50
2023-03-06T19:31:11.276Z,30.33
2023-03-06T19:33:40.148Z,30.50
2023-03-06T19:36:11.016Z,31.20
2023-03-06T19:38:59.281Z,30.90
2023-03-06T19:41:27.933Z,31.97
2023-03-06T19:44:00.501Z,31.43
2023-03-06T19:46:29.691Z,29.50
2023-03-06T19:48:59.300Z,30.47
2023-03-06T19:51:29.208Z,29.10
2023-03-06T19:53:59.259Z,27.97
2023-03-06T19:56:55.553Z,27.70
2023-03-06T19:59:23.566Z,27.43
2023-03-06T20:02:00.766Z,26.90
2023-03-06T20:04:32.368Z,26.80
2023-03-06T20:07:00.853Z,26.37
2023-03-06T20:09:32.335Z,26.47
2023-03-06T20:12:00.582Z,26.97
2023-03-06T20:14:33.748Z,26.10
2023-03-06T20:17:01.808Z,25.90
2023-03-06T20:19:30.893Z,25.30
2023-03-06T20:21:59.300Z,25.87
2023-03-06T20:24:27.791Z,26.47
2023-03-06T20:27:02.451Z,25.83
2023-03-06T20:29:31.402Z,25.53
2023-03-06T20:32:02.102Z,25.33
2023-03-06T20:34:30.791Z,25.70
2023-03-06T20:36:59.274Z,25.30
2023-03-06T20:39:28.197Z,25.93
2023-03-06T20:42:00.672Z,25.57
2023-03-06T20:44:30.029Z,26.00
2023-03-06T20:46:58.423Z,25.27
2023-03-06T20:49:28.666Z,25.33
2023-03-06T20:51:57.857Z,25.30
2023-03-06T20:54:28.209Z,25.20
2023-03-06T20:56:58.680Z,25.23
2023-03-06T20:59:28.925Z,24.93
2023-03-06T21:01:57.704Z,24.43
2023-03-06T21:04:28.208Z,24.83
2023-03-06T21:06:57.265Z,24.80
2023-03-06T21:09:25.680Z,24.63
2023-03-06T21:11:58.901Z,24.47
2023-03-06T21:14:29.599Z,24.70
2023-03-06T21:16:58.543Z,24.13
2023-03-06T21:19:26.891Z,24.30
2023-03-06T21:21:55.624Z,24.30
2023-03-06T21:24:26.948Z,23.47
2023-03-06T21:26:55.218Z,23.70
2023-03-06T21:29:27.601Z,23.23
2023-03-06T21:32:02.045Z,23.60
2023-03-06T21:34:33.772Z,22.90
2023-03-06T21:37:03.927Z,23.63
2023-03-06T21:39:38.798Z,23.40
2023-03-06T21:42:10.263Z,23.33
2023-03-06T21:44:40.333Z,23.17
2023-03-06T21:47:08.759Z,23.17
2023-03-06T21:49:37.349Z,23.30
2023-03-06T21:52:08.942Z,22.80
2023-03-06T21:54:37.862Z,23.13
2023-03-06T21:57:07.000Z,23.47
2023-03-06T21:59:35.142Z,23.07
2023-03-06T22:02:05.575Z,22.93
2023-03-06T22:04:34.509Z,23.33
2023-03-06T22:07:02.688Z,23.73
2023-03-06T22:09:31.078Z,23.27
2023-03-06T22:11:59.224Z,23.93
2023-03-06T22:14:27.422Z,23.57
2023-03-06T22:17:06.418Z,24.00
2023-03-06T22:19:34.886Z,24.07
2023-03-06T22:22:03.846Z,24.03
2023-03-06T22:24:33.710Z,23.90
2023-03-06T22:27:01.882Z,24.87
2023-03-06T22:29:30.199Z,24.33
2023-03-06T22:31:58.471Z,24.17
2023-03-06T22:34:28.554Z,24.43
2023-03-06T22:36:56.746Z,24.57
2023-03-06T22:39:25.660Z,24.23
2023-03-06T22:41:56.769Z,24.73
2023-03-06T22:44:25.112Z,25.00
2023-03-06T22:46:53.618Z,25.43
2023-03-06T22:49:22.301Z,25.50
2023-03-06T22:51:51.961Z,25.53
2023-03-06T22:54:20.217Z,25.67
2023-03-06T22:56:48.316Z,26.07
2023-03-06T22:59:16.728Z,25.80
2023-03-06T23:01:44.918Z,26.30
2023-03-06T23:04:13.315Z,26.53
2023-03-06T23:06:42.975Z,25.93
2023-03-06T23:09:23.559Z,26.70
2023-03-06T23:11:51.782Z,26.23
2023-03-06T23:14:20.996Z,26.60
2023-03-06T23:16:49.284Z,27.20
2023-03-06T23:19:17.809Z,26.83
2023-03-06T23:21:46.103Z,27.37
2023-03-06T23:24:14.481Z,27.63
2023-03-06T23:26:44.560Z,27.50
2023-03-06T23:29:12.742Z,28.57
2023-03-06T23:31:41.916Z,27.57
2023-03-06T23:34:11.717Z,27.43
2023-03-06T23:36:39.995Z,28.60
2023-03-06T23:39:08.274Z,27.30
2023-03-06T23:41:37.197Z,27.80
2023-03-06T23:44:07.337Z,27.87
2023-03-06T23:46:35.840Z,27.90
2023-03-06T23:49:04.634Z,28.40
2023-03-06T23:51:32.909Z,27.87
2023-03-06T23:54:02.173Z,28.80
2023-03-06T23:56:30.485Z,28.30
2023-03-06T23:58:58.789Z,28.60
